Kilgetty, United Kingdom
Current Conditions -  °F | °C
As of 11:50 AM on Thursday 29 Jan 2015 (Local Time) from EGOP Reporting Station
Moderate Rain Moderate Rain  
Wind Chill: -1°   Ceiling: 5000
Heat Index:   Visibility: 4mi
Dew Point:   Wind: 29mph
Humidity: 81%   Direction: 290°WNW
Pressure: 29.06"   Gusts: NA
Location:  51.73°N, 4.76°W
Report Text: EGOP 291150Z 29025KT 7000 RA SCT017 BKN050 05/02 Q0984 WHT
Loading
Personal Weather Stations






























Interactive Weather Map New forecast layout! Learn more

10-Day Weather Forecast

Advertisements
Track Severe Weather on mobile